createdAt,value
2022-12-31T00:02:05.195Z,98639.59
2022-12-31T00:04:31.793Z,98643.88
2022-12-31T00:06:58.387Z,98636.59
2022-12-31T00:09:24.859Z,98633.63
2022-12-31T00:11:51.348Z,98635.00
2022-12-31T00:14:17.913Z,98642.03
2022-12-31T00:16:44.523Z,98639.34
2022-12-31T00:19:12.368Z,98648.28
2022-12-31T00:21:39.574Z,98650.72
2022-12-31T00:24:07.270Z,98642.81
2022-12-31T00:26:35.067Z,98630.94
2022-12-31T00:29:02.701Z,98628.22
2022-12-31T00:31:31.784Z,98636.34
2022-12-31T00:33:59.078Z,98639.31
2022-12-31T00:36:30.549Z,98635.78
2022-12-31T00:38:58.697Z,98635.25
2022-12-31T00:41:26.305Z,98636.56
2022-12-31T00:43:52.909Z,98637.09
2022-12-31T00:46:19.920Z,98643.06
2022-12-31T00:48:47.009Z,98636.84
2022-12-31T00:51:16.371Z,98638.44
2022-12-31T00:53:43.498Z,98637.91
2022-12-31T00:56:15.747Z,98637.94
2022-12-31T00:58:42.956Z,98635.22
2022-12-31T01:01:10.607Z,98641.41
2022-12-31T01:03:37.404Z,98637.91
2022-12-31T01:06:04.535Z,98649.81
2022-12-31T01:08:31.087Z,98643.31
2022-12-31T01:11:16.459Z,98652.00
2022-12-31T01:13:42.960Z,98651.69
2022-12-31T01:16:11.619Z,98661.72
2022-12-31T01:18:38.949Z,98667.44
2022-12-31T01:21:07.752Z,98670.41
2022-12-31T01:23:34.593Z,98674.22
2022-12-31T01:26:03.397Z,98689.09
2022-12-31T01:28:30.307Z,98688.53
2022-12-31T01:30:57.240Z,98696.88
2022-12-31T01:33:24.015Z,98698.75
2022-12-31T01:35:50.757Z,98688.72
2022-12-31T01:38:17.279Z,98693.03
2022-12-31T01:40:44.241Z,98700.31
2022-12-31T01:43:18.973Z,98709.22
2022-12-31T01:45:52.540Z,98694.63
2022-12-31T01:48:25.375Z,98694.03
2022-12-31T01:50:53.601Z,98707.25
2022-12-31T01:53:20.927Z,98703.69
2022-12-31T01:55:56.641Z,98714.91
2022-12-31T01:58:34.538Z,98705.69
2022-12-31T02:01:01.161Z,98708.91
2022-12-31T02:03:29.048Z,98697.81
2022-12-31T02:06:20.150Z,98702.94
2022-12-31T02:08:47.447Z,98702.41
2022-12-31T02:11:34.429Z,98704.25
2022-12-31T02:14:08.528Z,98702.94
2022-12-31T02:17:02.019Z,98697.53
2022-12-31T02:19:42.945Z,98684.31
2022-12-31T02:22:41.507Z,98683.75
2022-12-31T02:25:10.861Z,98685.88
2022-12-31T02:28:19.813Z,98682.38
2022-12-31T02:30:53.250Z,98684.03
2022-12-31T02:33:31.264Z,98685.38
2022-12-31T02:36:13.206Z,98687.81
2022-12-31T02:38:44.321Z,98691.53
2022-12-31T02:41:35.722Z,98692.00
2022-12-31T02:44:19.644Z,98694.91
2022-12-31T02:46:51.644Z,98690.47
2022-12-31T02:49:26.269Z,98677.72
2022-12-31T02:52:06.519Z,98684.97
2022-12-31T02:54:42.495Z,98688.44
2022-12-31T02:57:25.847Z,98683.56
2022-12-31T03:00:23.961Z,98693.22
2022-12-31T03:02:52.677Z,98687.81
2022-12-31T03:05:29.465Z,98684.59
2022-12-31T03:07:56.080Z,98690.53
2022-12-31T03:10:22.616Z,98690.53
2022-12-31T03:12:49.984Z,98680.75
2022-12-31T03:15:22.569Z,98682.63
2022-12-31T03:18:13.544Z,98680.72
2022-12-31T03:21:24.244Z,98682.41
2022-12-31T03:24:09.113Z,98688.91
2022-12-31T03:26:35.837Z,98685.69
2022-12-31T03:29:02.337Z,98696.50
2022-12-31T03:31:28.892Z,98692.69
2022-12-31T03:33:55.468Z,98704.53
2022-12-31T03:36:21.963Z,98696.59
2022-12-31T03:38:52.542Z,98701.66
2022-12-31T03:41:19.351Z,98694.50
2022-12-31T03:43:45.903Z,98702.59
2022-12-31T03:46:12.398Z,98703.50
2022-12-31T03:48:39.890Z,98702.69
2022-12-31T03:51:06.333Z,98695.97
2022-12-31T03:53:34.787Z,98700.28
2022-12-31T03:56:01.249Z,98696.50
2022-12-31T03:58:27.762Z,98704.53
2022-12-31T04:00:54.325Z,98701.50
2022-12-31T04:03:20.944Z,98710.34
2022-12-31T04:05:55.489Z,98699.63
2022-12-31T04:08:22.577Z,98692.84
2022-12-31T04:10:49.053Z,98700.53
2022-12-31T04:13:15.553Z,98703.22
2022-12-31T04:15:42.070Z,98713.97
2022-12-31T04:18:08.537Z,98709.50
2022-12-31T04:20:35.038Z,98710.00
2022-12-31T04:23:01.503Z,98710.09
2022-12-31T04:25:27.980Z,98721.50
2022-12-31T04:27:54.523Z,98729.53
2022-12-31T04:30:21.043Z,98724.66
2022-12-31T04:32:47.562Z,98718.25
2022-12-31T04:35:14.022Z,98718.84
2022-12-31T04:37:40.588Z,98724.56
2022-12-31T04:40:08.360Z,98728.97
2022-12-31T04:42:35.363Z,98735.09
2022-12-31T04:45:01.863Z,98736.19
2022-12-31T04:47:28.456Z,98722.13
2022-12-31T04:49:54.955Z,98739.59
2022-12-31T04:52:23.044Z,98726.69
2022-12-31T04:54:50.012Z,98724.66
2022-12-31T04:57:16.624Z,98734.41
2022-12-31T04:59:43.134Z,98734.63
2022-12-31T05:02:09.849Z,98735.56
2022-12-31T05:04:36.408Z,98742.88
2022-12-31T05:07:03.103Z,98735.22
2022-12-31T05:09:29.758Z,98737.84
2022-12-31T05:11:56.593Z,98738.50
2022-12-31T05:14:23.308Z,98734.63
2022-12-31T05:16:50.568Z,98737.00
2022-12-31T05:19:17.098Z,98739.94
2022-12-31T05:21:43.606Z,98741.81
2022-12-31T05:24:10.099Z,98739.81
2022-12-31T05:26:36.589Z,98745.28
2022-12-31T05:29:03.051Z,98753.88
2022-12-31T05:31:29.596Z,98749.47
2022-12-31T05:33:56.275Z,98745.03
2022-12-31T05:36:22.785Z,98747.78
2022-12-31T05:38:49.234Z,98757.13
2022-12-31T05:41:15.785Z,98744.72
2022-12-31T05:43:42.224Z,98747.84
2022-12-31T05:46:08.942Z,98747.03
2022-12-31T05:48:35.522Z,98756.56
2022-12-31T05:51:02.048Z,98762.69
2022-12-31T05:53:28.641Z,98766.13
2022-12-31T05:55:55.087Z,98774.28
2022-12-31T05:58:21.536Z,98762.38
2022-12-31T06:00:48.067Z,98765.16
2022-12-31T06:03:14.684Z,98761.94
2022-12-31T06:05:42.899Z,98756.47
2022-12-31T06:08:11.104Z,98759.75
2022-12-31T06:10:38.359Z,98770.47
2022-12-31T06:13:05.005Z,98778.63
2022-12-31T06:15:31.733Z,98787.22
2022-12-31T06:17:58.334Z,98760.25
2022-12-31T06:20:24.817Z,98762.13
2022-12-31T06:22:51.305Z,98775.75
2022-12-31T06:25:17.814Z,98779.88
2022-12-31T06:27:44.282Z,98776.13
2022-12-31T06:30:11.476Z,98767.47
2022-12-31T06:32:39.373Z,98761.44
2022-12-31T06:35:06.746Z,98767.63
2022-12-31T06:37:33.257Z,98763.88
2022-12-31T06:39:59.785Z,98780.13
2022-12-31T06:42:30.780Z,98786.66
2022-12-31T06:44:58.371Z,98792.56
2022-12-31T06:47:25.782Z,98799.63
2022-12-31T06:49:52.686Z,98815.41
2022-12-31T06:52:19.437Z,98816.88
2022-12-31T06:54:46.329Z,98828.78
2022-12-31T06:57:13.248Z,98823.47
2022-12-31T06:59:39.961Z,98812.38
2022-12-31T07:02:44.125Z,98826.09
2022-12-31T07:05:25.924Z,98828.28
2022-12-31T07:08:20.172Z,98826.09
2022-12-31T07:11:00.132Z,98815.88
2022-12-31T07:13:48.056Z,98821.34
2022-12-31T07:16:32.638Z,98817.22
2022-12-31T07:19:10.992Z,98808.13
2022-12-31T07:21:41.113Z,98815.72
2022-12-31T07:24:09.804Z,98823.06
2022-12-31T07:27:33.480Z,98832.22
2022-12-31T07:30:00.002Z,98828.94
2022-12-31T07:32:44.633Z,98826.97
2022-12-31T07:35:34.760Z,98836.94
2022-12-31T07:38:19.863Z,98848.75
2022-12-31T07:41:07.338Z,98842.81
2022-12-31T07:43:35.640Z,98842.22
2022-12-31T07:46:39.593Z,98838.47
2022-12-31T07:49:11.219Z,98841.44
2022-12-31T07:51:38.484Z,98849.16
2022-12-31T07:54:08.800Z,98835.59
2022-12-31T07:56:40.289Z,98844.94
2022-12-31T07:59:36.748Z,98846.94
2022-12-31T08:02:32.326Z,98841.06
2022-12-31T08:05:23.333Z,98840.00
2022-12-31T08:08:11.110Z,98839.84
2022-12-31T08:10:46.485Z,98838.66
2022-12-31T08:13:13.309Z,98830.97
2022-12-31T08:15:40.528Z,98834.00
2022-12-31T08:18:07.801Z,98838.31
2022-12-31T08:20:43.940Z,98841.09
2022-12-31T08:24:04.605Z,98841.84
2022-12-31T08:26:36.865Z,98835.28
2022-12-31T08:29:30.026Z,98841.84
2022-12-31T08:32:12.718Z,98845.47
2022-12-31T08:34:56.070Z,98853.47
2022-12-31T08:37:31.600Z,98848.53
2022-12-31T08:40:13.046Z,98849.09
2022-12-31T08:42:42.494Z,98849.09
2022-12-31T08:45:20.058Z,98845.19
2022-12-31T08:48:02.823Z,98831.38
2022-12-31T08:50:30.229Z,98839.34
2022-12-31T08:52:57.149Z,98836.84
2022-12-31T08:55:23.984Z,98836.66
2022-12-31T08:58:27.419Z,98842.06
2022-12-31T09:00:57.992Z,98832.34
2022-12-31T09:03:42.079Z,98835.94
2022-12-31T09:06:33.774Z,98838.19
2022-12-31T09:09:19.783Z,98838.22
2022-12-31T09:11:57.398Z,98845.84
2022-12-31T09:14:33.012Z,98841.31
2022-12-31T09:17:02.511Z,98844.56
2022-12-31T09:19:29.029Z,98844.31
2022-12-31T09:21:56.283Z,98838.34
2022-12-31T09:24:23.154Z,98837.00
2022-12-31T09:27:28.345Z,98846.44
2022-12-31T09:30:01.002Z,98834.81
2022-12-31T09:32:32.762Z,98829.34
2022-12-31T09:35:09.766Z,98833.22
2022-12-31T09:37:49.394Z,98834.28
2022-12-31T09:40:37.547Z,98834.28
2022-12-31T09:43:22.758Z,98839.13
2022-12-31T09:46:07.336Z,98832.59
2022-12-31T09:49:08.068Z,98831.84
2022-12-31T09:52:25.374Z,98832.13
2022-12-31T09:55:24.113Z,98825.59
2022-12-31T09:57:56.590Z,98831.84
2022-12-31T10:00:35.548Z,98827.50
2022-12-31T10:03:38.221Z,98817.47
2022-12-31T10:06:24.526Z,98821.53
2022-12-31T10:09:21.218Z,98819.13
2022-12-31T10:12:04.030Z,98815.31
2022-12-31T10:15:07.894Z,98810.69
2022-12-31T10:17:40.519Z,98810.41
2022-12-31T10:20:51.714Z,98806.81
2022-12-31T10:23:27.533Z,98804.56
2022-12-31T10:26:22.395Z,98789.34
2022-12-31T10:28:51.585Z,98785.34
2022-12-31T10:31:48.681Z,98779.63
2022-12-31T10:34:33.563Z,98778.00
2022-12-31T10:37:17.634Z,98780.25
2022-12-31T10:39:54.265Z,98769.50
2022-12-31T10:43:17.900Z,98767.19
2022-12-31T10:46:35.533Z,98753.94
2022-12-31T10:49:39.800Z,98755.06
2022-12-31T10:52:21.293Z,98753.81
2022-12-31T10:55:10.439Z,98742.19
2022-12-31T10:57:52.071Z,98735.34
2022-12-31T11:00:20.963Z,98736.56
2022-12-31T11:03:28.865Z,98734.41
2022-12-31T11:06:33.186Z,98734.16
2022-12-31T11:09:08.631Z,98728.88
2022-12-31T11:11:38.199Z,98725.22
2022-12-31T11:14:23.307Z,98730.59
2022-12-31T11:17:31.973Z,98721.97
2022-12-31T11:20:24.561Z,98716.38
2022-12-31T11:23:02.312Z,98722.69
2022-12-31T11:25:37.876Z,98706.56
2022-12-31T11:28:13.385Z,98706.63
2022-12-31T11:30:58.137Z,98707.25
2022-12-31T11:33:50.143Z,98703.94
2022-12-31T11:36:43.355Z,98697.69
2022-12-31T11:39:42.072Z,98691.41
2022-12-31T11:42:40.688Z,98689.00
2022-12-31T11:45:37.936Z,98690.69
2022-12-31T11:48:30.129Z,98682.84
2022-12-31T11:51:31.434Z,98683.63
2022-12-31T11:54:35.293Z,98673.94
2022-12-31T11:57:34.161Z,98675.81
2022-12-31T12:00:14.376Z,98672.59
2022-12-31T12:02:45.910Z,98664.78
2022-12-31T12:05:15.169Z,98656.38
2022-12-31T12:07:41.748Z,98661.19
2022-12-31T12:10:24.150Z,98654.72
2022-12-31T12:12:52.236Z,98655.31
2022-12-31T12:15:24.215Z,98644.47
2022-12-31T12:17:55.286Z,98655.31
2022-12-31T12:20:30.382Z,98645.03
2022-12-31T12:22:58.750Z,98645.34
2022-12-31T12:25:35.782Z,98639.63
2022-12-31T12:28:16.670Z,98634.22
2022-12-31T12:30:44.101Z,98631.47
2022-12-31T12:33:19.187Z,98625.56
2022-12-31T12:35:46.742Z,98619.06
2022-12-31T12:38:19.187Z,98619.88
2022-12-31T12:41:04.037Z,98626.06
2022-12-31T12:43:33.921Z,98623.44
2022-12-31T12:46:30.755Z,98630.22
2022-12-31T12:48:58.491Z,98620.97
2022-12-31T12:51:32.301Z,98635.34
2022-12-31T12:54:17.371Z,98619.06
2022-12-31T12:57:00.898Z,98622.59
2022-12-31T12:59:30.224Z,98623.41
2022-12-31T13:02:21.718Z,98625.59
2022-12-31T13:05:26.005Z,98616.09
2022-12-31T13:08:12.656Z,98613.66
2022-12-31T13:10:41.878Z,98610.44
2022-12-31T13:13:48.794Z,98610.97
2022-12-31T13:16:23.934Z,98615.84
2022-12-31T13:19:02.172Z,98624.53
2022-12-31T13:21:43.691Z,98618.81
2022-12-31T13:24:28.951Z,98624.50
2022-12-31T13:27:04.124Z,98622.28
2022-12-31T13:29:34.998Z,98620.13
2022-12-31T13:32:05.425Z,98623.16
2022-12-31T13:34:37.284Z,98630.75
2022-12-31T13:37:13.072Z,98625.34
2022-12-31T13:39:43.301Z,98625.63
2022-12-31T13:42:25.541Z,98621.81
2022-12-31T13:44:59.395Z,98625.34
2022-12-31T13:47:30.113Z,98628.88
2022-12-31T13:50:02.760Z,98637.00
2022-12-31T13:52:38.566Z,98638.09
2022-12-31T13:55:13.625Z,98634.59
2022-12-31T13:57:49.444Z,98641.34
2022-12-31T14:00:29.970Z,98642.97
2022-12-31T14:03:14.854Z,98652.97
2022-12-31T14:05:56.296Z,98655.19
2022-12-31T14:08:22.863Z,98662.97
2022-12-31T14:11:48.711Z,98660.53
2022-12-31T14:14:47.719Z,98665.66
2022-12-31T14:17:31.415Z,98664.34
2022-12-31T14:20:26.995Z,98674.06
2022-12-31T14:23:15.231Z,98664.59
2022-12-31T14:25:49.589Z,98669.44
2022-12-31T14:28:21.686Z,98662.41
2022-12-31T14:30:54.928Z,98675.38
2022-12-31T14:33:24.148Z,98677.03
2022-12-31T14:36:06.664Z,98673.22
2022-12-31T14:38:45.570Z,98679.97
2022-12-31T14:41:44.876Z,98675.09
2022-12-31T14:44:42.212Z,98677.78
2022-12-31T14:47:23.877Z,98689.41
2022-12-31T14:50:11.496Z,98681.81
2022-12-31T14:52:53.813Z,98689.41
2022-12-31T14:55:24.891Z,98688.06
2022-12-31T14:58:26.635Z,98688.88
2022-12-31T15:00:55.832Z,98692.13
2022-12-31T15:03:27.001Z,98694.50
2022-12-31T15:06:15.754Z,98694.81
2022-12-31T15:09:16.414Z,98698.03
2022-12-31T15:12:24.845Z,98696.91
2022-12-31T15:15:20.093Z,98707.50
2022-12-31T15:18:07.555Z,98704.19
2022-12-31T15:21:13.501Z,98711.47
2022-12-31T15:23:42.320Z,98717.94
2022-12-31T15:26:23.245Z,98722.78
2022-12-31T15:29:02.578Z,98733.75
2022-12-31T15:31:30.026Z,98732.16
2022-12-31T15:34:07.880Z,98735.41
2022-12-31T15:36:38.496Z,98732.66
2022-12-31T15:39:23.407Z,98744.75
2022-12-31T15:42:35.485Z,98744.16
2022-12-31T15:44:55.026Z,98736.00
2022-12-31T15:47:33.428Z,98750.59
2022-12-31T15:50:04.099Z,98740.38
2022-12-31T15:52:40.344Z,98744.09
2022-12-31T15:55:07.782Z,98738.34
2022-12-31T15:57:41.025Z,98741.28
2022-12-31T16:00:17.926Z,98748.81
2022-12-31T16:02:53.270Z,98741.47
2022-12-31T16:05:23.441Z,98751.00
2022-12-31T16:08:01.570Z,98749.72
2022-12-31T16:10:30.950Z,98743.16
2022-12-31T16:12:59.550Z,98748.72
2022-12-31T16:15:30.264Z,98753.00
2022-12-31T16:18:36.003Z,98753.81
2022-12-31T16:21:02.526Z,98754.63
2022-12-31T16:23:28.989Z,98758.19
2022-12-31T16:25:59.784Z,98755.56
2022-12-31T16:28:32.239Z,98756.13
2022-12-31T16:31:08.271Z,98768.31
2022-12-31T16:33:34.855Z,98749.06
2022-12-31T16:36:01.869Z,98763.38
2022-12-31T16:38:33.686Z,98756.53
2022-12-31T16:41:02.938Z,98753.28
2022-12-31T16:43:40.519Z,98756.00
2022-12-31T16:46:26.825Z,98753.75
2022-12-31T16:48:58.213Z,98747.78
2022-12-31T16:51:30.542Z,98760.19
2022-12-31T16:53:58.173Z,98759.72
2022-12-31T16:56:36.927Z,98763.53
2022-12-31T16:59:12.109Z,98761.19
2022-12-31T17:01:39.054Z,98758.78
2022-12-31T17:04:11.026Z,98759.59
2022-12-31T17:06:37.773Z,98758.09
2022-12-31T17:09:12.799Z,98766.00
2022-12-31T17:11:56.441Z,98762.69
2022-12-31T17:14:26.845Z,98760.97
2022-12-31T17:17:03.570Z,98766.81
2022-12-31T17:19:45.977Z,98759.50
2022-12-31T17:22:17.624Z,98755.44
2022-12-31T17:24:47.827Z,98752.88
2022-12-31T17:27:14.773Z,98753.63
2022-12-31T17:29:41.773Z,98746.34
2022-12-31T17:32:28.588Z,98750.63
2022-12-31T17:34:55.080Z,98750.81
2022-12-31T17:37:31.372Z,98751.69
2022-12-31T17:40:40.520Z,98750.63
2022-12-31T17:42:48.836Z,98744.91
2022-12-31T17:45:21.371Z,98756.44
2022-12-31T17:47:55.644Z,98757.81
2022-12-31T17:50:24.669Z,98759.66
2022-12-31T17:52:55.609Z,98758.72
2022-12-31T17:55:22.056Z,98765.09
2022-12-31T17:57:53.260Z,98761.66
2022-12-31T18:00:25.170Z,98764.47
2022-12-31T18:02:52.178Z,98766.84
2022-12-31T18:05:23.662Z,98767.34
2022-12-31T18:07:50.411Z,98770.53
2022-12-31T18:10:19.258Z,98765.69
2022-12-31T18:12:47.436Z,98765.16
2022-12-31T18:15:20.061Z,98770.22
2022-12-31T18:17:46.585Z,98768.75
2022-12-31T18:20:13.536Z,98774.16
2022-12-31T18:22:42.248Z,98767.63
2022-12-31T18:25:20.649Z,98767.13
2022-12-31T18:27:48.094Z,98776.53
2022-12-31T18:30:18.241Z,98778.97
2022-12-31T18:32:46.193Z,98773.03
2022-12-31T18:35:33.226Z,98767.56
2022-12-31T18:38:03.481Z,98780.63
2022-12-31T18:40:30.180Z,98784.31
2022-12-31T18:43:02.728Z,98780.22
2022-12-31T18:45:31.295Z,98778.09
2022-12-31T18:47:57.825Z,98780.03
2022-12-31T18:50:24.412Z,98785.44
2022-12-31T18:52:50.877Z,98779.22
2022-12-31T18:55:23.808Z,98779.72
2022-12-31T18:57:50.516Z,98790.25
2022-12-31T19:00:17.270Z,98788.78
2022-12-31T19:02:43.817Z,98790.00
2022-12-31T19:05:31.754Z,98802.16
2022-12-31T19:07:58.385Z,98801.75
2022-12-31T19:10:26.514Z,98805.03
2022-12-31T19:12:53.745Z,98816.69
2022-12-31T19:15:22.857Z,98827.38
2022-12-31T19:17:49.305Z,98830.81
2022-12-31T19:20:16.126Z,98842.25
2022-12-31T19:22:42.652Z,98837.97
2022-12-31T19:25:21.741Z,98846.63
2022-12-31T19:27:49.247Z,98825.66
2022-12-31T19:30:18.337Z,98826.16
2022-12-31T19:32:45.093Z,98831.47
2022-12-31T19:35:13.363Z,98819.03
2022-12-31T19:37:40.983Z,98837.00
2022-12-31T19:40:22.549Z,98835.22
2022-12-31T19:42:50.004Z,98834.09
2022-12-31T19:45:19.506Z,98843.38
2022-12-31T19:47:46.690Z,98843.28
2022-12-31T19:50:19.873Z,98841.88
2022-12-31T19:52:48.632Z,98838.22
2022-12-31T19:55:18.650Z,98833.28
2022-12-31T19:57:46.579Z,98823.00
2022-12-31T20:00:16.534Z,98838.41
2022-12-31T20:02:45.168Z,98828.38
2022-12-31T20:05:13.386Z,98835.63
2022-12-31T20:07:40.013Z,98831.06
2022-12-31T20:10:07.682Z,98834.81
2022-12-31T20:12:39.066Z,98822.41
2022-12-31T20:15:09.305Z,98821.94
2022-12-31T20:17:36.582Z,98834.34
2022-12-31T20:20:03.927Z,98816.34
2022-12-31T20:22:30.507Z,98819.03
2022-12-31T20:24:58.208Z,98824.38
2022-12-31T20:27:24.761Z,98830.13
2022-12-31T20:29:51.290Z,98834.81
2022-12-31T20:32:17.825Z,98837.00
2022-12-31T20:34:44.381Z,98830.84
2022-12-31T20:37:10.969Z,98823.19
2022-12-31T20:39:37.719Z,98825.13
2022-12-31T20:42:04.675Z,98833.28
2022-12-31T20:44:31.259Z,98835.66
2022-12-31T20:46:57.839Z,98848.34
2022-12-31T20:49:44.827Z,98844.06
2022-12-31T20:52:10.923Z,98844.88
2022-12-31T20:54:37.550Z,98846.50
2022-12-31T20:57:04.218Z,98851.66
2022-12-31T20:59:30.725Z,98852.81
2022-12-31T21:02:20.401Z,98853.19
2022-12-31T21:04:45.463Z,98858.44
2022-12-31T21:07:12.189Z,98846.53
2022-12-31T21:09:38.694Z,98864.50
2022-12-31T21:12:23.739Z,98863.94
2022-12-31T21:14:50.252Z,98848.38
2022-12-31T21:17:16.743Z,98857.38
2022-12-31T21:19:43.279Z,98857.63
2022-12-31T21:22:09.791Z,98859.59
2022-12-31T21:24:36.323Z,98867.91
2022-12-31T21:27:02.847Z,98873.84
2022-12-31T21:29:34.329Z,98888.53
2022-12-31T21:32:01.349Z,98885.78
2022-12-31T21:34:27.852Z,98903.38
2022-12-31T21:36:54.390Z,98897.53
2022-12-31T21:39:20.932Z,98894.91
2022-12-31T21:41:53.325Z,98912.72
2022-12-31T21:44:21.680Z,98898.25
2022-12-31T21:47:24.799Z,98915.16
2022-12-31T21:49:35.799Z,98922.09
2022-12-31T21:52:20.801Z,98922.28
2022-12-31T21:55:05.664Z,98930.66
2022-12-31T21:57:46.391Z,98941.47
2022-12-31T22:00:44.333Z,98937.16
2022-12-31T22:03:24.845Z,98945.97
2022-12-31T22:05:57.235Z,98946.78
2022-12-31T22:08:23.907Z,98946.78
2022-12-31T22:10:53.016Z,98941.31
2022-12-31T22:13:20.123Z,98958.34
2022-12-31T22:15:48.469Z,98959.22
2022-12-31T22:18:16.305Z,98956.81
2022-12-31T22:20:43.004Z,98959.28
2022-12-31T22:23:10.052Z,98970.63
2022-12-31T22:25:38.347Z,98972.78
2022-12-31T22:28:37.602Z,98970.09
2022-12-31T22:30:52.934Z,98977.50
2022-12-31T22:33:19.530Z,98980.38
2022-12-31T22:36:00.472Z,98974.25
2022-12-31T22:38:28.586Z,98971.69
2022-12-31T22:41:21.970Z,98976.53
2022-12-31T22:43:50.978Z,98979.22
2022-12-31T22:46:19.334Z,98984.88
2022-12-31T22:48:46.503Z,98975.47
2022-12-31T22:51:14.826Z,98986.66
2022-12-31T22:53:43.324Z,98976.69
2022-12-31T22:56:12.440Z,98985.91
2022-12-31T22:58:39.499Z,98983.13
2022-12-31T23:01:07.671Z,98979.09
2022-12-31T23:03:34.448Z,98981.16
2022-12-31T23:06:01.024Z,98984.69
2022-12-31T23:08:27.551Z,98987.03
2022-12-31T23:11:00.717Z,98983.63
2022-12-31T23:13:50.808Z,98986.66
2022-12-31T23:16:37.154Z,99000.00
2022-12-31T23:19:22.672Z,98996.72
2022-12-31T23:22:07.585Z,98989.34
2022-12-31T23:24:34.270Z,98998.59
2022-12-31T23:27:00.838Z,98995.44
2022-12-31T23:29:27.357Z,98997.22
2022-12-31T23:31:54.222Z,99000.34
2022-12-31T23:34:21.093Z,99001.13
2022-12-31T23:36:47.632Z,99004.16
2022-12-31T23:39:14.148Z,99004.78
2022-12-31T23:41:40.736Z,99001.28
2022-12-31T23:44:07.461Z,99003.69
2022-12-31T23:46:34.030Z,98993.31
2022-12-31T23:49:00.528Z,99002.63
2022-12-31T23:51:27.061Z,98999.63
2022-12-31T23:53:53.649Z,99006.69
2022-12-31T23:56:23.718Z,99005.69
2022-12-31T23:58:55.343Z,99010.91
